createdAt,value
2022-08-05T00:00:53.486Z,70.72
2022-08-05T00:03:19.946Z,70.61
2022-08-05T00:06:06.562Z,70.26
2022-08-05T00:08:52.236Z,69.93
2022-08-05T00:11:49.436Z,70.34
2022-08-05T00:14:22.594Z,70.69
2022-08-05T00:16:55.427Z,69.75
2022-08-05T00:19:33.831Z,70.79
2022-08-05T00:22:42.439Z,70.87
2022-08-05T00:25:45.407Z,69.91
2022-08-05T00:28:16.060Z,70.11
2022-08-05T00:31:53.912Z,70.55
2022-08-05T00:34:53.546Z,69.87
2022-08-05T00:37:14.473Z,70.60
2022-08-05T00:39:59.293Z,70.63
2022-08-05T00:42:37.398Z,70.55
2022-08-05T00:45:08.802Z,70.56
2022-08-05T00:47:56.834Z,70.94
2022-08-05T00:50:54.371Z,70.57
2022-08-05T00:54:00.195Z,70.35
2022-08-05T00:56:22.939Z,70.02
2022-08-05T00:59:19.156Z,70.24
2022-08-05T01:01:52.553Z,69.91
2022-08-05T01:04:20.167Z,70.14
2022-08-05T01:07:07.780Z,71.06
2022-08-05T01:09:46.929Z,70.77
2022-08-05T01:12:35.290Z,70.10
2022-08-05T01:15:06.117Z,70.58
2022-08-05T01:17:58.098Z,70.56
2022-08-05T01:20:54.066Z,70.46
2022-08-05T01:23:26.398Z,71.32
2022-08-05T01:26:56.360Z,71.04
2022-08-05T01:29:38.847Z,70.92
2022-08-05T01:32:12.411Z,71.90
2022-08-05T01:34:54.645Z,71.46
2022-08-05T01:38:26.939Z,71.30
2022-08-05T01:41:01.645Z,71.63
2022-08-05T01:43:36.516Z,71.37
2022-08-05T01:46:16.276Z,71.63
2022-08-05T01:48:49.806Z,71.89
2022-08-05T01:51:18.239Z,72.22
2022-08-05T01:53:57.273Z,72.03
2022-08-05T01:58:10.553Z,72.33
2022-08-05T01:59:40.509Z,71.97
2022-08-05T02:02:14.062Z,72.19
2022-08-05T02:04:54.853Z,72.38
2022-08-05T02:08:01.260Z,72.30
2022-08-05T02:10:41.695Z,72.36
2022-08-05T02:13:17.233Z,72.54
2022-08-05T02:15:56.262Z,72.59
2022-08-05T02:19:09.861Z,72.47
2022-08-05T02:21:46.794Z,72.37
2022-08-05T02:24:25.953Z,72.48
2022-08-05T02:27:00.081Z,72.61
2022-08-05T02:29:59.136Z,73.00
2022-08-05T02:32:39.116Z,72.67
2022-08-05T02:35:28.132Z,72.67
2022-08-05T02:38:15.415Z,72.76
2022-08-05T02:40:53.440Z,73.04
2022-08-05T02:43:24.654Z,73.04
2022-08-05T02:45:54.085Z,73.18
2022-08-05T02:48:29.410Z,73.15
2022-08-05T02:52:04.119Z,72.99
2022-08-05T02:54:36.108Z,73.14
2022-08-05T02:58:19.949Z,73.28
2022-08-05T02:59:57.825Z,73.03
2022-08-05T03:02:33.923Z,73.10
2022-08-05T03:05:01.966Z,73.40
2022-08-05T03:08:00.505Z,73.62
2022-08-05T03:10:22.080Z,73.94
2022-08-05T03:12:55.267Z,74.05
2022-08-05T03:15:24.814Z,74.12
2022-08-05T03:17:55.804Z,74.06
2022-08-05T03:20:23.663Z,74.17
2022-08-05T03:23:34.952Z,73.87
2022-08-05T03:26:31.627Z,74.04
2022-08-05T03:28:59.417Z,74.28
2022-08-05T03:31:56.854Z,74.69
2022-08-05T03:38:00.958Z,74.03
2022-08-05T03:40:32.012Z,74.22
2022-08-05T03:43:59.309Z,74.28
2022-08-05T03:46:16.637Z,74.25
2022-08-05T03:48:45.394Z,74.31
2022-08-05T03:52:37.866Z,74.46
2022-08-05T03:55:00.074Z,74.21
2022-08-05T03:57:41.636Z,74.63
2022-08-05T04:01:05.324Z,74.59
2022-08-05T04:03:56.936Z,74.72
2022-08-05T04:06:47.352Z,74.73
2022-08-05T04:09:25.873Z,75.14
2022-08-05T04:12:02.753Z,75.04
2022-08-05T04:14:31.855Z,75.38
2022-08-05T04:17:03.073Z,75.27
2022-08-05T04:19:30.749Z,75.00
2022-08-05T04:22:10.248Z,75.18
2022-08-05T04:25:14.169Z,75.28
2022-08-05T04:27:58.942Z,75.28
2022-08-05T04:30:31.401Z,75.60
2022-08-05T04:32:58.201Z,75.43
2022-08-05T04:36:16.570Z,75.28
2022-08-05T04:38:39.691Z,75.58
2022-08-05T04:41:21.004Z,75.76
2022-08-05T04:44:00.792Z,75.05
2022-08-05T04:46:36.168Z,74.89
2022-08-05T04:49:38.767Z,75.10
2022-08-05T04:52:12.193Z,75.08
2022-08-05T04:54:38.693Z,74.86
2022-08-05T04:57:05.374Z,75.35
2022-08-05T04:59:38.628Z,74.90
2022-08-05T05:02:37.169Z,74.95
2022-08-05T05:05:02.307Z,75.17
2022-08-05T05:07:35.297Z,75.06
2022-08-05T05:10:05.394Z,74.94
2022-08-05T05:12:33.364Z,74.54
2022-08-05T05:15:10.797Z,74.68
2022-08-05T05:17:55.822Z,75.20
2022-08-05T05:20:32.664Z,75.19
2022-08-05T05:23:08.064Z,75.31
2022-08-05T05:25:58.226Z,75.67
2022-08-05T05:28:38.974Z,75.01
2022-08-05T05:31:15.655Z,74.49
2022-08-05T05:33:59.311Z,74.53
2022-08-05T05:36:28.551Z,74.60
2022-08-05T05:38:58.337Z,73.85
2022-08-05T05:41:40.832Z,74.09
2022-08-05T05:44:37.636Z,74.22
2022-08-05T05:47:21.293Z,74.30
2022-08-05T05:50:01.550Z,74.19
2022-08-05T05:52:32.931Z,74.04
2022-08-05T05:56:00.776Z,73.85
2022-08-05T05:58:31.639Z,74.15
2022-08-05T06:01:04.940Z,74.32
2022-08-05T06:03:54.172Z,74.51
2022-08-05T06:06:38.230Z,73.89
2022-08-05T06:09:08.514Z,73.95
2022-08-05T06:11:39.324Z,73.94
2022-08-05T06:14:34.978Z,73.79
2022-08-05T06:17:24.326Z,73.01
2022-08-05T06:19:56.861Z,72.84
2022-08-05T06:22:34.424Z,72.20
2022-08-05T06:25:24.934Z,71.93
2022-08-05T06:28:10.782Z,71.46
2022-08-05T06:30:34.984Z,70.37
2022-08-05T06:33:02.315Z,70.83
2022-08-05T06:36:07.113Z,70.33
2022-08-05T06:38:46.904Z,71.28
2022-08-05T06:41:26.475Z,70.38
2022-08-05T06:44:00.213Z,70.23
2022-08-05T06:46:29.703Z,70.08
2022-08-05T06:48:58.903Z,69.42
2022-08-05T06:51:29.763Z,69.06
2022-08-05T06:54:01.891Z,67.91
2022-08-05T06:56:30.180Z,68.58
2022-08-05T06:59:00.446Z,68.55
2022-08-05T07:01:27.700Z,67.82
2022-08-05T07:04:02.453Z,68.64
2022-08-05T07:06:31.917Z,67.68
2022-08-05T07:09:05.291Z,68.53
2022-08-05T07:11:36.870Z,68.08
2022-08-05T07:14:29.660Z,67.85
2022-08-05T07:18:00.457Z,68.01
2022-08-05T07:22:43.710Z,68.43
2022-08-05T07:25:54.908Z,68.31
2022-08-05T07:28:07.271Z,67.02
2022-08-05T07:30:39.705Z,68.06
2022-08-05T07:33:16.519Z,66.92
2022-08-05T07:36:20.343Z,67.13
2022-08-05T07:38:49.421Z,65.28
2022-08-05T07:42:12.893Z,66.15
2022-08-05T07:44:14.291Z,64.13
2022-08-05T07:46:49.606Z,64.82
2022-08-05T07:49:34.048Z,65.25
2022-08-05T07:52:10.197Z,63.62
2022-08-05T07:54:41.175Z,64.30
2022-08-05T07:57:58.858Z,61.88
2022-08-05T08:00:14.932Z,61.52
2022-08-05T08:03:13.761Z,61.97
2022-08-05T08:05:39.490Z,60.21
2022-08-05T08:08:21.060Z,57.34
2022-08-05T08:10:49.187Z,56.83
2022-08-05T08:13:22.121Z,57.69
2022-08-05T08:16:35.120Z,56.94
2022-08-05T08:18:42.369Z,57.00
2022-08-05T08:21:21.465Z,57.25
2022-08-05T08:24:02.764Z,56.07
2022-08-05T08:26:31.246Z,57.58
2022-08-05T08:30:03.207Z,57.67
2022-08-05T08:31:52.816Z,55.88
2022-08-05T08:34:30.212Z,56.44
2022-08-05T08:37:01.764Z,54.78
2022-08-05T08:39:49.526Z,54.06
2022-08-05T08:42:33.964Z,53.95
2022-08-05T08:45:40.558Z,54.40
2022-08-05T08:48:22.308Z,53.08
2022-08-05T08:52:01.705Z,53.65
2022-08-05T08:55:00.315Z,54.32
2022-08-05T08:57:41.998Z,52.44
2022-08-05T09:00:15.790Z,53.45
2022-08-05T09:02:46.513Z,53.46
2022-08-05T09:05:38.951Z,54.00
2022-08-05T09:08:14.235Z,55.49
2022-08-05T09:10:54.973Z,55.16
2022-08-05T09:14:09.501Z,53.71
2022-08-05T09:16:28.958Z,54.00
2022-08-05T09:18:55.995Z,52.67
2022-08-05T09:22:22.325Z,52.60
2022-08-05T09:24:19.023Z,53.22
2022-08-05T09:26:56.317Z,52.76
2022-08-05T09:29:47.973Z,52.45
2022-08-05T09:32:46.312Z,50.56
2022-08-05T09:35:27.668Z,52.99
2022-08-05T09:38:11.975Z,52.62
2022-08-05T09:40:52.650Z,51.24
2022-08-05T09:43:40.605Z,49.67
2022-08-05T09:46:51.644Z,50.30
2022-08-05T09:49:54.836Z,48.64
2022-08-05T09:52:29.198Z,50.03
2022-08-05T09:54:57.073Z,47.32
2022-08-05T09:57:49.611Z,49.56
2022-08-05T10:00:26.617Z,49.25
2022-08-05T10:03:11.383Z,49.46
2022-08-05T10:05:46.257Z,48.05
2022-08-05T10:08:37.797Z,48.17
2022-08-05T10:11:43.729Z,46.96
2022-08-05T10:14:33.206Z,45.40
2022-08-05T10:17:37.828Z,45.11
2022-08-05T10:20:10.079Z,45.42
2022-08-05T10:22:51.139Z,45.11
2022-08-05T10:25:19.125Z,45.05
2022-08-05T10:28:16.772Z,46.17
2022-08-05T10:31:19.944Z,46.62
2022-08-05T10:33:24.958Z,46.57
2022-08-05T10:35:59.748Z,45.56
2022-08-05T10:38:28.507Z,45.82
2022-08-05T10:41:26.056Z,48.17
2022-08-05T10:44:30.012Z,45.97
2022-08-05T10:47:26.646Z,45.55
2022-08-05T10:50:32.365Z,43.64
2022-08-05T10:53:01.094Z,42.42
2022-08-05T10:55:28.343Z,41.35
2022-08-05T10:58:11.723Z,42.27
2022-08-05T11:00:47.438Z,41.43
2022-08-05T11:03:24.371Z,39.96
2022-08-05T11:06:04.773Z,41.23
2022-08-05T11:08:37.158Z,40.03
2022-08-05T11:11:51.987Z,41.63
2022-08-05T11:17:59.859Z,40.33
2022-08-05T11:20:32.656Z,40.51
2022-08-05T11:24:05.689Z,40.79
2022-08-05T11:26:28.526Z,39.44
2022-08-05T11:29:28.176Z,40.18
2022-08-05T11:32:26.350Z,40.80
2022-08-05T11:34:54.158Z,44.52
2022-08-05T11:38:26.574Z,42.47
2022-08-05T11:41:36.820Z,41.46
2022-08-05T11:44:40.159Z,41.50
2022-08-05T11:47:15.250Z,41.68
2022-08-05T11:49:49.577Z,41.77
2022-08-05T11:52:29.254Z,40.00
2022-08-05T11:54:58.174Z,40.48
2022-08-05T11:58:10.223Z,42.31
2022-08-05T12:00:32.704Z,41.42
2022-08-05T12:03:31.519Z,42.51
2022-08-05T12:06:20.049Z,42.81
2022-08-05T12:08:57.562Z,42.67
2022-08-05T12:11:28.381Z,43.45
2022-08-05T12:14:17.314Z,43.43
2022-08-05T12:16:47.311Z,43.90
2022-08-05T12:20:26.159Z,44.04
2022-08-05T12:22:29.876Z,44.27
2022-08-05T12:24:58.554Z,43.29
2022-08-05T12:27:32.626Z,44.00
2022-08-05T12:30:06.494Z,44.12
2022-08-05T12:32:51.224Z,44.95
2022-08-05T12:35:21.731Z,44.76
2022-08-05T12:38:18.389Z,45.41
2022-08-05T12:40:49.905Z,46.85
2022-08-05T12:43:20.910Z,46.43
2022-08-05T12:45:55.423Z,47.23
2022-08-05T12:48:32.176Z,47.64
2022-08-05T12:52:11.031Z,48.04
2022-08-05T12:54:14.743Z,48.04
2022-08-05T12:56:51.000Z,48.17
2022-08-05T12:59:21.110Z,48.57
2022-08-05T13:02:15.486Z,48.36
2022-08-05T13:05:14.696Z,48.92
2022-08-05T13:08:04.614Z,48.25
2022-08-05T13:10:50.268Z,48.31
2022-08-05T13:14:06.687Z,48.78
2022-08-05T13:16:15.243Z,48.90
2022-08-05T13:18:51.841Z,49.62
2022-08-05T13:21:48.047Z,49.06
2022-08-05T13:24:14.444Z,49.21
2022-08-05T13:26:54.212Z,49.81
2022-08-05T13:29:37.821Z,49.85
2022-08-05T13:32:05.518Z,49.37
2022-08-05T13:34:32.667Z,49.42
2022-08-05T13:37:00.226Z,46.97
2022-08-05T13:40:16.235Z,47.49
2022-08-05T13:42:16.262Z,48.20
2022-08-05T13:44:45.955Z,48.49
2022-08-05T13:47:36.017Z,49.16
2022-08-05T13:50:04.543Z,48.71
2022-08-05T13:52:32.272Z,48.63
2022-08-05T13:55:02.669Z,48.41
2022-08-05T13:57:50.870Z,47.46
2022-08-05T14:00:19.760Z,47.95
2022-08-05T14:02:57.145Z,47.20
2022-08-05T14:06:24.652Z,48.53
2022-08-05T14:08:32.487Z,48.34
2022-08-05T14:11:22.075Z,48.90
2022-08-05T14:13:48.641Z,48.47
2022-08-05T14:16:21.615Z,47.27
2022-08-05T14:18:48.248Z,46.29
2022-08-05T14:22:06.715Z,47.27
2022-08-05T14:24:02.460Z,46.13
2022-08-05T14:26:38.516Z,45.68
2022-08-05T14:29:16.076Z,45.20
2022-08-05T14:32:02.411Z,46.71
2022-08-05T14:34:35.186Z,46.79
2022-08-05T14:37:13.410Z,45.37
2022-08-05T14:39:49.418Z,45.67
2022-08-05T14:42:26.993Z,46.58
2022-08-05T14:44:53.714Z,47.24
2022-08-05T14:48:03.138Z,46.69
2022-08-05T14:50:19.529Z,47.38
2022-08-05T14:52:58.303Z,46.23
2022-08-05T14:55:38.537Z,46.56
2022-08-05T14:58:21.208Z,47.69
2022-08-05T15:00:59.830Z,48.57
2022-08-05T15:03:33.582Z,48.54
2022-08-05T15:06:08.294Z,47.67
2022-08-05T15:09:01.331Z,48.68
2022-08-05T15:11:53.067Z,49.79
2022-08-05T15:14:34.436Z,49.10
2022-08-05T15:17:04.779Z,49.16
2022-08-05T15:19:39.049Z,48.83
2022-08-05T15:22:05.916Z,49.01
2022-08-05T15:24:33.537Z,49.64
2022-08-05T15:27:36.042Z,50.05
2022-08-05T15:30:03.324Z,51.14
2022-08-05T15:32:29.861Z,51.50
2022-08-05T15:34:58.123Z,50.70
2022-08-05T15:38:34.522Z,50.70
2022-08-05T15:41:01.465Z,50.57
2022-08-05T15:43:12.676Z,51.54
2022-08-05T15:45:46.039Z,51.06
2022-08-05T15:48:26.956Z,50.32
2022-08-05T15:50:53.364Z,50.84
2022-08-05T15:53:22.735Z,50.55
2022-08-05T15:56:01.964Z,50.11
2022-08-05T15:58:35.506Z,50.21
2022-08-05T16:01:17.415Z,49.50
2022-08-05T16:03:48.600Z,49.17
2022-08-05T16:06:19.960Z,49.08
2022-08-05T16:09:07.601Z,50.14
2022-08-05T16:11:40.228Z,50.79
2022-08-05T16:14:09.986Z,49.91
2022-08-05T16:16:44.288Z,50.06
2022-08-05T16:19:25.296Z,49.65
2022-08-05T16:22:02.845Z,50.13
2022-08-05T16:24:41.840Z,50.35
2022-08-05T16:27:47.049Z,49.33
2022-08-05T16:30:25.760Z,49.99
2022-08-05T16:32:53.008Z,49.80
2022-08-05T16:35:19.474Z,50.30
2022-08-05T16:38:18.420Z,51.14
2022-08-05T16:40:55.028Z,51.02
2022-08-05T16:43:25.400Z,51.07
2022-08-05T16:46:04.549Z,50.09
2022-08-05T16:48:39.258Z,51.20
2022-08-05T16:51:09.653Z,50.37
2022-08-05T16:54:06.050Z,49.55
2022-08-05T16:56:29.557Z,47.83
2022-08-05T16:59:07.568Z,48.28
2022-08-05T17:01:52.894Z,49.11
2022-08-05T17:04:21.980Z,46.97
2022-08-05T17:06:53.521Z,47.84
2022-08-05T17:09:20.557Z,48.36
2022-08-05T17:11:48.771Z,47.76
2022-08-05T17:14:34.376Z,48.43
2022-08-05T17:17:03.997Z,47.26
2022-08-05T17:19:31.282Z,48.14
2022-08-05T17:21:58.450Z,48.68
2022-08-05T17:24:35.198Z,48.23
2022-08-05T17:27:10.101Z,48.56
2022-08-05T17:29:41.343Z,49.21
2022-08-05T17:32:17.193Z,48.94
2022-08-05T17:34:49.107Z,49.43
2022-08-05T17:37:41.732Z,50.25
2022-08-05T17:40:10.148Z,50.33
2022-08-05T17:42:41.739Z,51.22
2022-08-05T17:45:21.833Z,50.79
2022-08-05T17:47:55.684Z,52.07
2022-08-05T17:50:30.548Z,50.80
2022-08-05T17:53:02.545Z,52.14
2022-08-05T17:55:39.615Z,51.52
2022-08-05T17:58:09.798Z,51.38
2022-08-05T18:00:39.916Z,50.02
2022-08-05T18:03:11.251Z,50.03
2022-08-05T18:05:39.038Z,51.18
2022-08-05T18:08:13.915Z,51.45
2022-08-05T18:10:40.527Z,51.88
2022-08-05T18:13:12.492Z,52.69
2022-08-05T18:15:39.475Z,52.85
2022-08-05T18:18:11.165Z,52.81
2022-08-05T18:20:43.168Z,53.34
2022-08-05T18:23:13.468Z,52.57
2022-08-05T18:25:44.882Z,52.92
2022-08-05T18:28:16.025Z,53.36
2022-08-05T18:30:49.996Z,53.48
2022-08-05T18:33:22.766Z,52.59
2022-08-05T18:36:03.261Z,50.30
2022-08-05T18:38:36.292Z,51.56
2022-08-05T18:41:56.853Z,51.63
2022-08-05T18:43:53.899Z,50.87
2022-08-05T18:46:21.710Z,51.98
2022-08-05T18:48:53.692Z,52.27
2022-08-05T18:52:04.098Z,52.43
2022-08-05T18:54:31.303Z,51.95
2022-08-05T18:57:02.518Z,52.66
2022-08-05T18:59:43.895Z,52.63
2022-08-05T19:02:26.847Z,52.68
2022-08-05T19:06:06.117Z,53.27
2022-08-05T19:08:12.287Z,52.75
2022-08-05T19:10:45.628Z,53.30
2022-08-05T19:13:25.323Z,53.46
2022-08-05T19:16:03.606Z,53.52
2022-08-05T19:18:31.480Z,54.14
2022-08-05T19:20:59.727Z,54.15
2022-08-05T19:24:05.862Z,54.17
2022-08-05T19:26:21.958Z,52.86
2022-08-05T19:28:59.997Z,54.10
2022-08-05T19:31:33.823Z,54.05
2022-08-05T19:34:11.523Z,54.86
2022-08-05T19:36:48.044Z,55.20
2022-08-05T19:39:22.306Z,54.73
2022-08-05T19:42:06.873Z,54.65
2022-08-05T19:44:44.608Z,55.12
2022-08-05T19:47:11.292Z,55.43
2022-08-05T19:49:41.832Z,55.73
2022-08-05T19:52:31.844Z,56.03
2022-08-05T19:56:13.997Z,55.46
2022-08-05T19:58:28.540Z,55.49
2022-08-05T20:01:27.176Z,56.01
2022-08-05T20:04:21.100Z,56.06
2022-08-05T20:06:50.808Z,57.25
2022-08-05T20:09:17.610Z,57.69
2022-08-05T20:11:48.033Z,56.86
2022-08-05T20:14:27.123Z,57.23
2022-08-05T20:17:09.234Z,57.25
2022-08-05T20:19:56.615Z,57.63
2022-08-05T20:22:31.788Z,57.23
2022-08-05T20:25:33.896Z,57.37
2022-08-05T20:28:16.863Z,57.89
2022-08-05T20:30:51.710Z,58.04
2022-08-05T20:33:18.165Z,58.40
2022-08-05T20:35:54.206Z,58.52
2022-08-05T20:38:27.159Z,58.44
2022-08-05T20:41:04.668Z,58.38
2022-08-05T20:43:58.789Z,58.80
2022-08-05T20:46:31.199Z,58.60
2022-08-05T20:48:58.358Z,59.48
2022-08-05T20:51:25.097Z,59.13
2022-08-05T20:53:56.208Z,59.38
2022-08-05T20:56:32.983Z,59.25
2022-08-05T20:59:14.068Z,59.50
2022-08-05T21:01:51.785Z,59.46
2022-08-05T21:04:19.013Z,59.88
2022-08-05T21:06:53.532Z,60.15
2022-08-05T21:09:22.131Z,59.86
2022-08-05T21:12:06.560Z,59.85
2022-08-05T21:14:35.986Z,60.04
2022-08-05T21:17:26.212Z,59.84
2022-08-05T21:19:55.115Z,60.42
2022-08-05T21:22:35.180Z,59.90
2022-08-05T21:25:02.136Z,60.46
2022-08-05T21:27:38.906Z,60.61
2022-08-05T21:30:06.577Z,60.35
2022-08-05T21:32:35.283Z,60.52
2022-08-05T21:35:09.134Z,60.52
2022-08-05T21:37:52.736Z,60.86
2022-08-05T21:40:23.154Z,60.74
2022-08-05T21:42:52.082Z,61.00
2022-08-05T21:45:25.012Z,61.42
2022-08-05T21:48:09.741Z,61.32
2022-08-05T21:50:56.355Z,61.08
2022-08-05T21:53:27.690Z,61.14
2022-08-05T21:56:04.732Z,61.26
2022-08-05T21:58:33.357Z,61.36
2022-08-05T22:01:04.683Z,61.59
2022-08-05T22:03:48.545Z,61.46
2022-08-05T22:06:39.675Z,61.65
2022-08-05T22:09:13.286Z,61.51
2022-08-05T22:11:41.809Z,61.69
2022-08-05T22:14:34.613Z,61.68
2022-08-05T22:17:00.191Z,62.25
2022-08-05T22:20:00.976Z,62.37
2022-08-05T22:22:28.211Z,62.07
2022-08-05T22:25:31.179Z,62.19
2022-08-05T22:28:46.624Z,62.51
2022-08-05T22:31:30.317Z,62.55
2022-08-05T22:34:01.363Z,62.56
2022-08-05T22:36:29.060Z,62.29
2022-08-05T22:39:09.391Z,62.78
2022-08-05T22:42:10.387Z,63.17
2022-08-05T22:44:53.648Z,63.04
2022-08-05T22:47:29.076Z,62.85
2022-08-05T22:50:17.874Z,63.52
2022-08-05T22:52:44.097Z,63.48
2022-08-05T22:55:19.197Z,63.87
2022-08-05T22:57:47.307Z,64.00
2022-08-05T23:00:18.428Z,63.78
2022-08-05T23:02:53.645Z,63.78
2022-08-05T23:05:36.183Z,63.69
2022-08-05T23:08:14.282Z,63.76
2022-08-05T23:10:41.758Z,64.30
2022-08-05T23:13:08.730Z,63.81
2022-08-05T23:16:00.284Z,64.38
2022-08-05T23:18:31.235Z,64.74
2022-08-05T23:21:42.891Z,64.97
2022-08-05T23:24:34.352Z,64.77
2022-08-05T23:27:01.101Z,65.45
2022-08-05T23:29:36.649Z,65.68
2022-08-05T23:32:13.566Z,65.52
2022-08-05T23:34:43.474Z,65.78
2022-08-05T23:37:36.569Z,65.83
2022-08-05T23:40:29.090Z,65.68
2022-08-05T23:42:58.848Z,66.08
2022-08-05T23:45:31.300Z,66.12
2022-08-05T23:48:05.027Z,66.18
2022-08-05T23:50:50.661Z,65.76
2022-08-05T23:53:46.421Z,65.86
2022-08-05T23:56:13.584Z,66.22
2022-08-05T23:58:55.082Z,66.17
